sensor_id;sensor_type;location;lat;lon;timestamp;temperature;humidity
37456;DHT22;23316;50.718;7.328;2024-03-02T00:00:30;22.40;32.60
37456;DHT22;23316;50.718;7.328;2024-03-02T00:02:58;22.40;32.50
37456;DHT22;23316;50.718;7.328;2024-03-02T00:05:25;22.50;32.50
37456;DHT22;23316;50.718;7.328;2024-03-02T00:07:55;22.40;32.50
37456;DHT22;23316;50.718;7.328;2024-03-02T00:10:25;22.40;32.50
37456;DHT22;23316;50.718;7.328;2024-03-02T00:12:55;22.40;32.50
37456;DHT22;23316;50.718;7.328;2024-03-02T00:15:40;22.40;32.40
37456;DHT22;23316;50.718;7.328;2024-03-02T00:18:11;22.40;32.40
37456;DHT22;23316;50.718;7.328;2024-03-02T00:20:40;22.40;32.40
37456;DHT22;23316;50.718;7.328;2024-03-02T00:23:09;22.40;32.40
37456;DHT22;23316;50.718;7.328;2024-03-02T00:25:41;22.40;32.40
37456;DHT22;23316;50.718;7.328;2024-03-02T00:28:14;22.40;32.40
37456;DHT22;23316;50.718;7.328;2024-03-02T00:30:59;22.40;32.40
37456;DHT22;23316;50.718;7.328;2024-03-02T00:33:31;22.30;32.30
37456;DHT22;23316;50.718;7.328;2024-03-02T00:35:59;22.30;32.40
37456;DHT22;23316;50.718;7.328;2024-03-02T00:38:29;22.30;32.40
37456;DHT22;23316;50.718;7.328;2024-03-02T00:40:58;22.30;32.40
37456;DHT22;23316;50.718;7.328;2024-03-02T00:43:53;22.20;32.40
37456;DHT22;23316;50.718;7.328;2024-03-02T00:46:23;22.20;32.50
37456;DHT22;23316;50.718;7.328;2024-03-02T00:48:53;22.30;32.50
37456;DHT22;23316;50.718;7.328;2024-03-02T00:51:22;22.20;32.50
37456;DHT22;23316;50.718;7.328;2024-03-02T00:53:51;22.20;32.50
37456;DHT22;23316;50.718;7.328;2024-03-02T00:56:22;22.30;32.60
37456;DHT22;23316;50.718;7.328;2024-03-02T00:58:49;22.30;32.60
37456;DHT22;23316;50.718;7.328;2024-03-02T01:01:17;22.30;32.60
37456;DHT22;23316;50.718;7.328;2024-03-02T01:03:44;22.30;32.60
37456;DHT22;23316;50.718;7.328;2024-03-02T01:06:12;22.30;32.60
37456;DHT22;23316;50.718;7.328;2024-03-02T01:08:39;22.30;32.50
37456;DHT22;23316;50.718;7.328;2024-03-02T01:11:08;22.30;32.50
37456;DHT22;23316;50.718;7.328;2024-03-02T01:13:35;22.30;32.50
37456;DHT22;23316;50.718;7.328;2024-03-02T01:16:03;22.30;32.50
37456;DHT22;23316;50.718;7.328;2024-03-02T01:18:30;22.30;32.50
37456;DHT22;23316;50.718;7.328;2024-03-02T01:20:57;22.30;32.50
37456;DHT22;23316;50.718;7.328;2024-03-02T01:23:25;22.30;32.50
37456;DHT22;23316;50.718;7.328;2024-03-02T01:25:52;22.30;32.50
37456;DHT22;23316;50.718;7.328;2024-03-02T01:28:21;22.20;32.50
37456;DHT22;23316;50.718;7.328;2024-03-02T01:30:48;22.20;32.50
37456;DHT22;23316;50.718;7.328;2024-03-02T01:33:16;22.20;32.50
37456;DHT22;23316;50.718;7.328;2024-03-02T01:35:43;22.20;32.50
37456;DHT22;23316;50.718;7.328;2024-03-02T01:38:11;22.20;32.50
37456;DHT22;23316;50.718;7.328;2024-03-02T01:40:38;22.20;32.50
37456;DHT22;23316;50.718;7.328;2024-03-02T01:43:06;22.20;32.60
37456;DHT22;23316;50.718;7.328;2024-03-02T01:45:35;22.10;32.50
37456;DHT22;23316;50.718;7.328;2024-03-02T01:48:04;22.10;32.50
37456;DHT22;23316;50.718;7.328;2024-03-02T01:50:32;22.10;32.50
37456;DHT22;23316;50.718;7.328;2024-03-02T01:53:00;22.10;32.50
37456;DHT22;23316;50.718;7.328;2024-03-02T01:55:28;22.10;32.50
37456;DHT22;23316;50.718;7.328;2024-03-02T01:57:56;22.00;32.50
37456;DHT22;23316;50.718;7.328;2024-03-02T02:00:24;22.00;32.50
37456;DHT22;23316;50.718;7.328;2024-03-02T02:02:53;22.00;32.50
37456;DHT22;23316;50.718;7.328;2024-03-02T02:05:21;22.00;32.50
37456;DHT22;23316;50.718;7.328;2024-03-02T02:07:48;21.90;32.50
37456;DHT22;23316;50.718;7.328;2024-03-02T02:10:15;22.00;32.60
37456;DHT22;23316;50.718;7.328;2024-03-02T02:12:43;21.90;32.70
37456;DHT22;23316;50.718;7.328;2024-03-02T02:15:24;22.00;32.80
37456;DHT22;23316;50.718;7.328;2024-03-02T02:17:53;22.00;32.80
37456;DHT22;23316;50.718;7.328;2024-03-02T02:20:20;22.00;32.80
37456;DHT22;23316;50.718;7.328;2024-03-02T02:22:58;22.00;32.80
37456;DHT22;23316;50.718;7.328;2024-03-02T02:25:26;22.10;32.90
37456;DHT22;23316;50.718;7.328;2024-03-02T02:27:54;22.10;32.80
37456;DHT22;23316;50.718;7.328;2024-03-02T02:30:23;22.10;32.80
37456;DHT22;23316;50.718;7.328;2024-03-02T02:32:51;22.10;32.90
37456;DHT22;23316;50.718;7.328;2024-03-02T02:35:18;22.20;32.90
37456;DHT22;23316;50.718;7.328;2024-03-02T02:37:46;22.20;32.90
37456;DHT22;23316;50.718;7.328;2024-03-02T02:40:15;22.20;32.90
37456;DHT22;23316;50.718;7.328;2024-03-02T02:42:44;22.30;32.90
37456;DHT22;23316;50.718;7.328;2024-03-02T02:45:11;22.30;32.90
37456;DHT22;23316;50.718;7.328;2024-03-02T02:47:40;22.30;32.90
37456;DHT22;23316;50.718;7.328;2024-03-02T02:50:08;22.40;32.90
37456;DHT22;23316;50.718;7.328;2024-03-02T02:52:37;22.40;32.80
37456;DHT22;23316;50.718;7.328;2024-03-02T02:55:07;22.40;32.80
37456;DHT22;23316;50.718;7.328;2024-03-02T02:57:37;22.40;32.70
37456;DHT22;23316;50.718;7.328;2024-03-02T03:00:06;22.40;32.70
37456;DHT22;23316;50.718;7.328;2024-03-02T03:02:37;22.40;32.70
37456;DHT22;23316;50.718;7.328;2024-03-02T03:05:06;22.40;32.60
37456;DHT22;23316;50.718;7.328;2024-03-02T03:07:33;22.40;32.50
37456;DHT22;23316;50.718;7.328;2024-03-02T03:10:02;22.40;32.60
37456;DHT22;23316;50.718;7.328;2024-03-02T03:12:30;22.40;32.50
37456;DHT22;23316;50.718;7.328;2024-03-02T03:14:59;22.40;32.50
37456;DHT22;23316;50.718;7.328;2024-03-02T03:17:26;22.30;32.50
37456;DHT22;23316;50.718;7.328;2024-03-02T03:19:54;22.30;32.50
37456;DHT22;23316;50.718;7.328;2024-03-02T03:22:21;22.30;32.60
37456;DHT22;23316;50.718;7.328;2024-03-02T03:24:49;22.30;32.60
37456;DHT22;23316;50.718;7.328;2024-03-02T03:27:16;22.30;32.60
37456;DHT22;23316;50.718;7.328;2024-03-02T03:29:42;22.30;32.60
37456;DHT22;23316;50.718;7.328;2024-03-02T03:32:10;22.20;32.50
37456;DHT22;23316;50.718;7.328;2024-03-02T03:34:38;22.20;32.50
37456;DHT22;23316;50.718;7.328;2024-03-02T03:37:06;22.20;32.50
37456;DHT22;23316;50.718;7.328;2024-03-02T03:39:34;22.10;32.50
37456;DHT22;23316;50.718;7.328;2024-03-02T03:42:02;22.10;32.60
37456;DHT22;23316;50.718;7.328;2024-03-02T03:44:29;22.20;32.60
37456;DHT22;23316;50.718;7.328;2024-03-02T03:46:56;22.20;32.70
37456;DHT22;23316;50.718;7.328;2024-03-02T03:49:25;22.20;32.80
37456;DHT22;23316;50.718;7.328;2024-03-02T03:51:52;22.20;32.80
37456;DHT22;23316;50.718;7.328;2024-03-02T03:54:19;22.20;32.80
37456;DHT22;23316;50.718;7.328;2024-03-02T03:56:46;22.20;32.80
37456;DHT22;23316;50.718;7.328;2024-03-02T03:59:13;22.30;32.80
37456;DHT22;23316;50.718;7.328;2024-03-02T04:01:40;22.30;32.80
37456;DHT22;23316;50.718;7.328;2024-03-02T04:04:08;22.30;32.70
37456;DHT22;23316;50.718;7.328;2024-03-02T04:06:36;22.30;32.70
37456;DHT22;23316;50.718;7.328;2024-03-02T04:09:03;22.30;32.70
37456;DHT22;23316;50.718;7.328;2024-03-02T04:11:30;22.30;32.70
37456;DHT22;23316;50.718;7.328;2024-03-02T04:13:58;22.30;32.60
37456;DHT22;23316;50.718;7.328;2024-03-02T04:16:25;22.30;32.60
37456;DHT22;23316;50.718;7.328;2024-03-02T04:18:52;22.30;32.50
37456;DHT22;23316;50.718;7.328;2024-03-02T04:21:20;22.30;32.50
37456;DHT22;23316;50.718;7.328;2024-03-02T04:23:48;22.30;32.50
37456;DHT22;23316;50.718;7.328;2024-03-02T04:26:16;22.30;32.50
37456;DHT22;23316;50.718;7.328;2024-03-02T04:28:48;22.20;32.50
37456;DHT22;23316;50.718;7.328;2024-03-02T04:31:15;22.20;32.50
37456;DHT22;23316;50.718;7.328;2024-03-02T04:33:42;22.20;32.50
37456;DHT22;23316;50.718;7.328;2024-03-02T04:36:10;22.20;32.50
37456;DHT22;23316;50.718;7.328;2024-03-02T04:38:37;22.20;32.50
37456;DHT22;23316;50.718;7.328;2024-03-02T04:41:06;22.20;32.50
37456;DHT22;23316;50.718;7.328;2024-03-02T04:43:34;22.10;32.50
37456;DHT22;23316;50.718;7.328;2024-03-02T04:46:01;22.10;32.50
37456;DHT22;23316;50.718;7.328;2024-03-02T04:48:28;22.10;32.50
37456;DHT22;23316;50.718;7.328;2024-03-02T04:50:56;22.10;32.60
37456;DHT22;23316;50.718;7.328;2024-03-02T04:53:23;22.10;32.40
37456;DHT22;23316;50.718;7.328;2024-03-02T04:55:50;22.00;32.30
37456;DHT22;23316;50.718;7.328;2024-03-02T04:58:54;22.00;32.40
37456;DHT22;23316;50.718;7.328;2024-03-02T05:01:22;22.00;32.40
37456;DHT22;23316;50.718;7.328;2024-03-02T05:03:49;22.00;32.40
37456;DHT22;23316;50.718;7.328;2024-03-02T05:06:16;22.00;32.40
37456;DHT22;23316;50.718;7.328;2024-03-02T05:08:43;21.90;32.40
37456;DHT22;23316;50.718;7.328;2024-03-02T05:11:11;21.90;32.40
37456;DHT22;23316;50.718;7.328;2024-03-02T05:14:17;21.90;32.50
37456;DHT22;23316;50.718;7.328;2024-03-02T05:16:44;21.90;32.60
37456;DHT22;23316;50.718;7.328;2024-03-02T05:19:12;21.90;32.70
37456;DHT22;23316;50.718;7.328;2024-03-02T05:21:39;21.90;32.80
37456;DHT22;23316;50.718;7.328;2024-03-02T05:24:06;22.00;32.90
37456;DHT22;23316;50.718;7.328;2024-03-02T05:26:33;22.00;33.00
37456;DHT22;23316;50.718;7.328;2024-03-02T05:29:01;22.00;33.00
37456;DHT22;23316;50.718;7.328;2024-03-02T05:31:30;22.00;33.10
37456;DHT22;23316;50.718;7.328;2024-03-02T05:33:57;22.10;33.20
37456;DHT22;23316;50.718;7.328;2024-03-02T05:36:24;22.10;33.20
37456;DHT22;23316;50.718;7.328;2024-03-02T05:38:52;22.20;33.20
37456;DHT22;23316;50.718;7.328;2024-03-02T05:41:19;22.20;32.90
37456;DHT22;23316;50.718;7.328;2024-03-02T05:43:46;22.30;32.80
37456;DHT22;23316;50.718;7.328;2024-03-02T05:46:13;22.30;32.80
37456;DHT22;23316;50.718;7.328;2024-03-02T05:48:42;22.30;32.80
37456;DHT22;23316;50.718;7.328;2024-03-02T05:51:09;22.40;33.00
37456;DHT22;23316;50.718;7.328;2024-03-02T05:53:36;22.40;33.10
37456;DHT22;23316;50.718;7.328;2024-03-02T05:56:05;22.40;33.10
37456;DHT22;23316;50.718;7.328;2024-03-02T05:58:32;22.40;33.00
37456;DHT22;23316;50.718;7.328;2024-03-02T06:01:12;22.50;33.00
37456;DHT22;23316;50.718;7.328;2024-03-02T06:03:39;22.50;33.10
37456;DHT22;23316;50.718;7.328;2024-03-02T06:06:07;22.50;33.10
37456;DHT22;23316;50.718;7.328;2024-03-02T06:08:35;22.50;33.10
37456;DHT22;23316;50.718;7.328;2024-03-02T06:11:02;22.50;33.00
37456;DHT22;23316;50.718;7.328;2024-03-02T06:13:29;22.60;32.90
37456;DHT22;23316;50.718;7.328;2024-03-02T06:15:57;22.60;32.80
37456;DHT22;23316;50.718;7.328;2024-03-02T06:18:24;22.60;32.50
37456;DHT22;23316;50.718;7.328;2024-03-02T06:20:51;22.60;32.40
37456;DHT22;23316;50.718;7.328;2024-03-02T06:23:20;22.60;32.40
37456;DHT22;23316;50.718;7.328;2024-03-02T06:25:47;22.60;32.40
37456;DHT22;23316;50.718;7.328;2024-03-02T06:28:14;22.50;32.50
37456;DHT22;23316;50.718;7.328;2024-03-02T06:30:41;22.50;32.50
37456;DHT22;23316;50.718;7.328;2024-03-02T06:33:08;22.50;32.40
37456;DHT22;23316;50.718;7.328;2024-03-02T06:35:36;22.50;32.40
37456;DHT22;23316;50.718;7.328;2024-03-02T06:38:04;22.50;32.30
37456;DHT22;23316;50.718;7.328;2024-03-02T06:40:32;22.50;32.90
37456;DHT22;23316;50.718;7.328;2024-03-02T06:43:00;22.50;32.40
37456;DHT22;23316;50.718;7.328;2024-03-02T06:45:27;22.40;32.40
37456;DHT22;23316;50.718;7.328;2024-03-02T06:47:56;22.40;32.50
37456;DHT22;23316;50.718;7.328;2024-03-02T06:50:23;22.40;32.50
37456;DHT22;23316;50.718;7.328;2024-03-02T06:52:51;22.40;32.50
37456;DHT22;23316;50.718;7.328;2024-03-02T06:55:18;22.40;32.50
37456;DHT22;23316;50.718;7.328;2024-03-02T06:57:47;22.30;32.40
37456;DHT22;23316;50.718;7.328;2024-03-02T07:00:15;22.30;32.50
37456;DHT22;23316;50.718;7.328;2024-03-02T07:02:43;22.30;32.50
37456;DHT22;23316;50.718;7.328;2024-03-02T07:05:12;22.30;32.60
37456;DHT22;23316;50.718;7.328;2024-03-02T07:07:39;22.30;32.70
37456;DHT22;23316;50.718;7.328;2024-03-02T07:10:07;22.40;32.80
37456;DHT22;23316;50.718;7.328;2024-03-02T07:12:34;22.40;32.80
37456;DHT22;23316;50.718;7.328;2024-03-02T07:15:03;22.40;32.80
37456;DHT22;23316;50.718;7.328;2024-03-02T07:17:48;22.40;32.90
37456;DHT22;23316;50.718;7.328;2024-03-02T07:20:16;22.40;32.80
37456;DHT22;23316;50.718;7.328;2024-03-02T07:22:43;22.40;32.80
37456;DHT22;23316;50.718;7.328;2024-03-02T07:25:11;22.50;32.80
37456;DHT22;23316;50.718;7.328;2024-03-02T07:27:38;22.50;32.80
37456;DHT22;23316;50.718;7.328;2024-03-02T07:30:07;22.50;32.80
37456;DHT22;23316;50.718;7.328;2024-03-02T07:32:35;22.50;32.80
37456;DHT22;23316;50.718;7.328;2024-03-02T07:35:02;22.50;32.80
37456;DHT22;23316;50.718;7.328;2024-03-02T07:37:29;22.50;32.80
37456;DHT22;23316;50.718;7.328;2024-03-02T07:39:57;22.50;32.80
37456;DHT22;23316;50.718;7.328;2024-03-02T07:42:25;22.50;32.80
37456;DHT22;23316;50.718;7.328;2024-03-02T07:44:52;22.50;32.80
37456;DHT22;23316;50.718;7.328;2024-03-02T07:47:20;22.50;32.80
37456;DHT22;23316;50.718;7.328;2024-03-02T07:49:49;22.50;32.90
37456;DHT22;23316;50.718;7.328;2024-03-02T07:52:16;22.40;32.90
37456;DHT22;23316;50.718;7.328;2024-03-02T07:54:43;22.40;32.90
37456;DHT22;23316;50.718;7.328;2024-03-02T07:57:10;22.40;33.00
37456;DHT22;23316;50.718;7.328;2024-03-02T07:59:38;22.40;33.00
37456;DHT22;23316;50.718;7.328;2024-03-02T08:02:05;22.40;33.20
37456;DHT22;23316;50.718;7.328;2024-03-02T08:04:35;22.40;32.80
37456;DHT22;23316;50.718;7.328;2024-03-02T08:07:03;22.40;32.40
37456;DHT22;23316;50.718;7.328;2024-03-02T08:09:31;22.40;32.30
37456;DHT22;23316;50.718;7.328;2024-03-02T08:11:58;22.50;32.60
37456;DHT22;23316;50.718;7.328;2024-03-02T08:14:25;22.40;32.70
37456;DHT22;23316;50.718;7.328;2024-03-02T08:16:52;22.50;32.80
37456;DHT22;23316;50.718;7.328;2024-03-02T08:19:19;22.60;32.80
37456;DHT22;23316;50.718;7.328;2024-03-02T08:21:48;22.60;32.80
37456;DHT22;23316;50.718;7.328;2024-03-02T08:24:15;22.60;32.80
37456;DHT22;23316;50.718;7.328;2024-03-02T08:26:43;22.70;32.80
37456;DHT22;23316;50.718;7.328;2024-03-02T08:29:10;22.70;32.70
37456;DHT22;23316;50.718;7.328;2024-03-02T08:31:37;22.70;32.70
37456;DHT22;23316;50.718;7.328;2024-03-02T08:34:05;22.70;32.70
37456;DHT22;23316;50.718;7.328;2024-03-02T08:36:32;22.80;32.30
37456;DHT22;23316;50.718;7.328;2024-03-02T08:39:01;22.80;31.90
37456;DHT22;23316;50.718;7.328;2024-03-02T08:41:29;22.80;31.90
37456;DHT22;23316;50.718;7.328;2024-03-02T08:43:56;22.80;31.90
37456;DHT22;23316;50.718;7.328;2024-03-02T08:46:23;22.80;31.90
37456;DHT22;23316;50.718;7.328;2024-03-02T08:48:50;22.80;31.70
37456;DHT22;23316;50.718;7.328;2024-03-02T08:51:17;22.80;31.60
37456;DHT22;23316;50.718;7.328;2024-03-02T08:53:45;22.80;31.60
37456;DHT22;23316;50.718;7.328;2024-03-02T08:56:15;22.80;31.70
37456;DHT22;23316;50.718;7.328;2024-03-02T08:58:43;22.80;31.80
37456;DHT22;23316;50.718;7.328;2024-03-02T09:01:10;22.80;31.90
37456;DHT22;23316;50.718;7.328;2024-03-02T09:03:38;22.80;32.00
37456;DHT22;23316;50.718;7.328;2024-03-02T09:06:05;22.80;32.10
37456;DHT22;23316;50.718;7.328;2024-03-02T09:08:32;22.70;32.10
37456;DHT22;23316;50.718;7.328;2024-03-02T09:11:01;22.70;32.10
37456;DHT22;23316;50.718;7.328;2024-03-02T09:13:29;22.70;32.20
37456;DHT22;23316;50.718;7.328;2024-03-02T09:15:57;22.70;32.30
37456;DHT22;23316;50.718;7.328;2024-03-02T09:18:24;22.70;32.30
37456;DHT22;23316;50.718;7.328;2024-03-02T09:20:51;22.70;32.40
37456;DHT22;23316;50.718;7.328;2024-03-02T09:23:18;22.80;32.50
37456;DHT22;23316;50.718;7.328;2024-03-02T09:25:45;22.80;32.60
37456;DHT22;23316;50.718;7.328;2024-03-02T09:28:13;22.90;32.60
37456;DHT22;23316;50.718;7.328;2024-03-02T09:30:43;22.90;32.60
37456;DHT22;23316;50.718;7.328;2024-03-02T09:33:10;22.90;32.60
37456;DHT22;23316;50.718;7.328;2024-03-02T09:35:37;23.00;32.60
37456;DHT22;23316;50.718;7.328;2024-03-02T09:38:05;23.00;32.60
37456;DHT22;23316;50.718;7.328;2024-03-02T09:40:32;23.00;32.60
37456;DHT22;23316;50.718;7.328;2024-03-02T09:43:00;23.10;32.60
37456;DHT22;23316;50.718;7.328;2024-03-02T09:45:27;23.10;32.60
37456;DHT22;23316;50.718;7.328;2024-03-02T09:47:56;23.10;32.60
37456;DHT22;23316;50.718;7.328;2024-03-02T09:50:23;23.10;32.50
37456;DHT22;23316;50.718;7.328;2024-03-02T09:52:50;23.10;32.50
37456;DHT22;23316;50.718;7.328;2024-03-02T09:55:18;23.10;32.50
37456;DHT22;23316;50.718;7.328;2024-03-02T09:57:46;23.10;32.50
37456;DHT22;23316;50.718;7.328;2024-03-02T10:00:15;23.10;32.50
37456;DHT22;23316;50.718;7.328;2024-03-02T10:02:42;23.10;32.60
37456;DHT22;23316;50.718;7.328;2024-03-02T10:05:11;23.20;32.60
37456;DHT22;23316;50.718;7.328;2024-03-02T10:07:38;23.10;32.50
37456;DHT22;23316;50.718;7.328;2024-03-02T10:10:13;23.10;32.50
37456;DHT22;23316;50.718;7.328;2024-03-02T10:12:41;23.10;32.60
37456;DHT22;23316;50.718;7.328;2024-03-02T10:15:08;23.20;32.60
37456;DHT22;23316;50.718;7.328;2024-03-02T10:17:36;23.10;32.60
37456;DHT22;23316;50.718;7.328;2024-03-02T10:20:24;23.10;32.70
37456;DHT22;23316;50.718;7.328;2024-03-02T10:22:52;23.10;32.70
37456;DHT22;23316;50.718;7.328;2024-03-02T10:25:29;23.10;32.70
37456;DHT22;23316;50.718;7.328;2024-03-02T10:27:58;23.10;32.80
37456;DHT22;23316;50.718;7.328;2024-03-02T10:30:26;23.10;32.80
37456;DHT22;23316;50.718;7.328;2024-03-02T10:32:53;23.10;32.80
37456;DHT22;23316;50.718;7.328;2024-03-02T10:35:23;23.10;32.80
37456;DHT22;23316;50.718;7.328;2024-03-02T10:37:52;23.20;32.80
37456;DHT22;23316;50.718;7.328;2024-03-02T10:40:21;23.20;32.80
37456;DHT22;23316;50.718;7.328;2024-03-02T10:42:50;23.20;32.70
37456;DHT22;23316;50.718;7.328;2024-03-02T10:45:19;23.20;32.70
37456;DHT22;23316;50.718;7.328;2024-03-02T10:47:47;23.20;32.70
37456;DHT22;23316;50.718;7.328;2024-03-02T10:50:15;23.20;32.60
37456;DHT22;23316;50.718;7.328;2024-03-02T10:52:43;23.20;32.60
37456;DHT22;23316;50.718;7.328;2024-03-02T10:55:10;23.20;32.50
37456;DHT22;23316;50.718;7.328;2024-03-02T10:57:42;23.20;32.50
37456;DHT22;23316;50.718;7.328;2024-03-02T11:00:13;23.20;32.50
37456;DHT22;23316;50.718;7.328;2024-03-02T11:02:46;23.20;32.40
37456;DHT22;23316;50.718;7.328;2024-03-02T11:05:18;23.20;32.40
37456;DHT22;23316;50.718;7.328;2024-03-02T11:07:53;23.20;32.40
37456;DHT22;23316;50.718;7.328;2024-03-02T11:10:23;23.20;32.40
37456;DHT22;23316;50.718;7.328;2024-03-02T11:12:58;23.20;32.50
37456;DHT22;23316;50.718;7.328;2024-03-02T11:15:27;23.10;32.50
37456;DHT22;23316;50.718;7.328;2024-03-02T11:17:55;23.10;32.50
37456;DHT22;23316;50.718;7.328;2024-03-02T11:20:23;23.10;32.60
37456;DHT22;23316;50.718;7.328;2024-03-02T11:22:50;23.10;32.60
37456;DHT22;23316;50.718;7.328;2024-03-02T11:25:26;23.10;32.60
37456;DHT22;23316;50.718;7.328;2024-03-02T11:28:01;23.10;32.60
37456;DHT22;23316;50.718;7.328;2024-03-02T11:30:50;23.00;32.60
37456;DHT22;23316;50.718;7.328;2024-03-02T11:33:25;23.00;32.60
37456;DHT22;23316;50.718;7.328;2024-03-02T11:35:53;23.00;32.60
37456;DHT22;23316;50.718;7.328;2024-03-02T11:38:20;23.00;32.60
37456;DHT22;23316;50.718;7.328;2024-03-02T11:40:49;23.00;32.70
37456;DHT22;23316;50.718;7.328;2024-03-02T11:43:16;23.00;32.80
37456;DHT22;23316;50.718;7.328;2024-03-02T11:45:44;23.00;32.80
37456;DHT22;23316;50.718;7.328;2024-03-02T11:48:13;23.00;32.80
37456;DHT22;23316;50.718;7.328;2024-03-02T11:50:42;23.00;32.80
37456;DHT22;23316;50.718;7.328;2024-03-02T11:53:13;23.00;32.90
37456;DHT22;23316;50.718;7.328;2024-03-02T11:55:40;23.10;32.90
37456;DHT22;23316;50.718;7.328;2024-03-02T11:58:11;23.10;33.00
37456;DHT22;23316;50.718;7.328;2024-03-02T12:00:38;23.10;33.00
37456;DHT22;23316;50.718;7.328;2024-03-02T12:03:07;23.20;33.00
37456;DHT22;23316;50.718;7.328;2024-03-02T12:05:35;23.20;32.90
37456;DHT22;23316;50.718;7.328;2024-03-02T12:08:04;23.20;32.80
37456;DHT22;23316;50.718;7.328;2024-03-02T12:10:33;23.20;32.80
37456;DHT22;23316;50.718;7.328;2024-03-02T12:13:03;23.20;32.80
37456;DHT22;23316;50.718;7.328;2024-03-02T12:15:34;23.20;32.70
37456;DHT22;23316;50.718;7.328;2024-03-02T12:18:03;23.20;32.70
37456;DHT22;23316;50.718;7.328;2024-03-02T12:20:32;23.20;32.80
37456;DHT22;23316;50.718;7.328;2024-03-02T12:23:00;23.20;32.70
37456;DHT22;23316;50.718;7.328;2024-03-02T12:25:28;23.20;32.70
37456;DHT22;23316;50.718;7.328;2024-03-02T12:27:57;23.20;32.80
37456;DHT22;23316;50.718;7.328;2024-03-02T12:30:27;23.10;32.70
37456;DHT22;23316;50.718;7.328;2024-03-02T12:32:57;23.20;32.70
37456;DHT22;23316;50.718;7.328;2024-03-02T12:35:24;23.10;32.60
37456;DHT22;23316;50.718;7.328;2024-03-02T12:37:53;23.10;32.70
37456;DHT22;23316;50.718;7.328;2024-03-02T12:40:21;23.10;32.60
37456;DHT22;23316;50.718;7.328;2024-03-02T12:42:49;23.10;32.40
37456;DHT22;23316;50.718;7.328;2024-03-02T12:45:17;23.10;32.40
37456;DHT22;23316;50.718;7.328;2024-03-02T12:47:49;23.00;32.40
37456;DHT22;23316;50.718;7.328;2024-03-02T12:50:19;23.00;32.50
37456;DHT22;23316;50.718;7.328;2024-03-02T12:52:51;23.00;32.60
37456;DHT22;23316;50.718;7.328;2024-03-02T12:55:20;23.00;32.70
37456;DHT22;23316;50.718;7.328;2024-03-02T12:57:49;23.00;32.80
37456;DHT22;23316;50.718;7.328;2024-03-02T13:00:18;23.00;32.80
37456;DHT22;23316;50.718;7.328;2024-03-02T13:02:46;22.90;32.80
37456;DHT22;23316;50.718;7.328;2024-03-02T13:05:14;22.90;32.80
37456;DHT22;23316;50.718;7.328;2024-03-02T13:07:42;22.90;32.80
37456;DHT22;23316;50.718;7.328;2024-03-02T13:10:12;22.90;32.80
37456;DHT22;23316;50.718;7.328;2024-03-02T13:12:39;22.90;32.80
37456;DHT22;23316;50.718;7.328;2024-03-02T13:15:08;22.80;32.80
37456;DHT22;23316;50.718;7.328;2024-03-02T13:17:35;22.90;32.90
37456;DHT22;23316;50.718;7.328;2024-03-02T13:20:03;22.90;32.90
37456;DHT22;23316;50.718;7.328;2024-03-02T13:22:33;22.90;32.90
37456;DHT22;23316;50.718;7.328;2024-03-02T13:25:02;22.90;32.90
37456;DHT22;23316;50.718;7.328;2024-03-02T13:27:30;22.90;32.90
37456;DHT22;23316;50.718;7.328;2024-03-02T13:29:58;23.00;32.90
37456;DHT22;23316;50.718;7.328;2024-03-02T13:32:25;23.00;32.90
37456;DHT22;23316;50.718;7.328;2024-03-02T13:34:52;23.00;32.90
37456;DHT22;23316;50.718;7.328;2024-03-02T13:37:20;23.00;32.80
37456;DHT22;23316;50.718;7.328;2024-03-02T13:39:47;23.00;32.80
37456;DHT22;23316;50.718;7.328;2024-03-02T13:42:16;23.00;32.80
37456;DHT22;23316;50.718;7.328;2024-03-02T13:44:44;23.00;32.80
37456;DHT22;23316;50.718;7.328;2024-03-02T13:47:11;23.00;32.80
37456;DHT22;23316;50.718;7.328;2024-03-02T13:49:38;23.00;32.80
37456;DHT22;23316;50.718;7.328;2024-03-02T13:52:09;23.00;33.30
37456;DHT22;23316;50.718;7.328;2024-03-02T13:54:39;23.00;32.70
37456;DHT22;23316;50.718;7.328;2024-03-02T13:57:08;23.00;32.70
37456;DHT22;23316;50.718;7.328;2024-03-02T13:59:37;23.00;32.70
37456;DHT22;23316;50.718;7.328;2024-03-02T14:02:05;23.00;32.40
37456;DHT22;23316;50.718;7.328;2024-03-02T14:04:33;23.00;32.20
37456;DHT22;23316;50.718;7.328;2024-03-02T14:07:01;22.90;32.00
37456;DHT22;23316;50.718;7.328;2024-03-02T14:09:29;22.90;32.10
37456;DHT22;23316;50.718;7.328;2024-03-02T14:11:56;22.90;32.30
37456;DHT22;23316;50.718;7.328;2024-03-02T14:14:23;22.80;32.40
37456;DHT22;23316;50.718;7.328;2024-03-02T14:16:52;22.80;32.50
37456;DHT22;23316;50.718;7.328;2024-03-02T14:19:19;22.80;32.60
37456;DHT22;23316;50.718;7.328;2024-03-02T14:21:47;22.80;32.70
37456;DHT22;23316;50.718;7.328;2024-03-02T14:24:14;22.80;32.80
37456;DHT22;23316;50.718;7.328;2024-03-02T14:26:41;22.70;32.80
37456;DHT22;23316;50.718;7.328;2024-03-02T14:29:08;22.70;32.80
37456;DHT22;23316;50.718;7.328;2024-03-02T14:31:36;22.70;32.80
37456;DHT22;23316;50.718;7.328;2024-03-02T14:34:04;22.70;32.80
37456;DHT22;23316;50.718;7.328;2024-03-02T14:36:31;22.70;32.80
37456;DHT22;23316;50.718;7.328;2024-03-02T14:38:59;22.60;32.80
37456;DHT22;23316;50.718;7.328;2024-03-02T14:41:26;22.70;32.90
37456;DHT22;23316;50.718;7.328;2024-03-02T14:43:53;22.70;32.80
37456;DHT22;23316;50.718;7.328;2024-03-02T14:46:21;22.60;32.80
37456;DHT22;23316;50.718;7.328;2024-03-02T14:48:48;22.60;32.80
37456;DHT22;23316;50.718;7.328;2024-03-02T14:51:16;22.60;32.90
37456;DHT22;23316;50.718;7.328;2024-03-02T14:53:43;22.70;33.00
37456;DHT22;23316;50.718;7.328;2024-03-02T14:56:10;22.70;33.00
37456;DHT22;23316;50.718;7.328;2024-03-02T14:58:39;22.70;33.00
37456;DHT22;23316;50.718;7.328;2024-03-02T15:01:06;22.80;33.60
37456;DHT22;23316;50.718;7.328;2024-03-02T15:03:35;22.80;33.00
37456;DHT22;23316;50.718;7.328;2024-03-02T15:06:02;22.80;33.00
37456;DHT22;23316;50.718;7.328;2024-03-02T15:08:32;22.90;33.00
37456;DHT22;23316;50.718;7.328;2024-03-02T15:10:59;22.90;33.20
37456;DHT22;23316;50.718;7.328;2024-03-02T15:13:27;22.90;32.50
37456;DHT22;23316;50.718;7.328;2024-03-02T15:15:54;23.00;32.60
37456;DHT22;23316;50.718;7.328;2024-03-02T15:18:21;23.00;32.70
37456;DHT22;23316;50.718;7.328;2024-03-02T15:20:50;23.00;32.80
37456;DHT22;23316;50.718;7.328;2024-03-02T15:23:17;23.00;32.80
37456;DHT22;23316;50.718;7.328;2024-03-02T15:25:45;23.00;32.70
37456;DHT22;23316;50.718;7.328;2024-03-02T15:28:12;23.00;32.80
37456;DHT22;23316;50.718;7.328;2024-03-02T15:30:40;23.00;33.30
37456;DHT22;23316;50.718;7.328;2024-03-02T15:33:07;23.00;32.70
37456;DHT22;23316;50.718;7.328;2024-03-02T15:35:34;23.00;32.70
37456;DHT22;23316;50.718;7.328;2024-03-02T15:38:01;23.00;32.70